createdAt,value
2017-04-21T04:00:34.973Z,7.29
2017-04-21T04:01:00.460Z,7.32
2017-04-21T04:01:25.947Z,7.31
2017-04-21T04:01:51.467Z,7.36
2017-04-21T04:02:16.987Z,7.31
2017-04-21T04:02:42.505Z,7.29
2017-04-21T04:03:08.012Z,7.42
2017-04-21T04:03:33.533Z,7.31
2017-04-21T04:03:59.001Z,7.36
2017-04-21T04:04:24.547Z,7.4
2017-04-21T04:04:50.115Z,7.29
2017-04-21T04:05:15.612Z,7.29
2017-04-21T04:05:41.087Z,7.33
2017-04-21T04:06:06.572Z,7.39
2017-04-21T04:06:32.107Z,7.32
2017-04-21T04:06:57.610Z,7.32
2017-04-21T04:07:23.099Z,7.39
2017-04-21T04:07:48.634Z,7.38
2017-04-21T04:08:14.166Z,7.4
2017-04-21T04:08:39.685Z,7.38
2017-04-21T04:09:05.198Z,7.39
2017-04-21T04:09:30.697Z,7.47
2017-04-21T04:09:56.214Z,7.5
2017-04-21T04:10:21.711Z,7.42
2017-04-21T04:10:47.219Z,7.42
2017-04-21T04:11:12.745Z,7.5
2017-04-21T04:11:38.229Z,7.45
2017-04-21T04:12:03.723Z,7.54
2017-04-21T04:12:29.230Z,7.47
2017-04-21T04:12:54.710Z,7.53
2017-04-21T04:13:20.226Z,7.51
2017-04-21T04:13:45.734Z,7.45
2017-04-21T04:14:11.226Z,7.51
2017-04-21T04:14:36.753Z,7.5
2017-04-21T04:15:02.240Z,7.5
2017-04-21T04:15:27.728Z,7.45
2017-04-21T04:15:53.209Z,7.47
2017-04-21T04:16:18.737Z,7.45
2017-04-21T04:16:44.272Z,7.43
2017-04-21T04:17:09.808Z,7.51
2017-04-21T04:17:35.306Z,7.42
2017-04-21T04:18:00.806Z,7.47
2017-04-21T04:18:26.306Z,7.48
2017-04-21T04:18:51.834Z,7.51
2017-04-21T04:19:17.326Z,7.45
2017-04-21T04:19:42.856Z,7.45
2017-04-21T04:20:08.327Z,7.47
2017-04-21T04:20:33.874Z,7.48
2017-04-21T04:20:59.397Z,7.47
2017-04-21T04:21:24.881Z,7.47
2017-04-21T04:21:50.388Z,7.51
2017-04-21T04:22:15.887Z,7.5
2017-04-21T04:22:41.375Z,7.45
2017-04-21T04:23:06.873Z,7.47
2017-04-21T04:23:32.406Z,7.43
2017-04-21T04:23:57.963Z,7.42
2017-04-21T04:24:23.478Z,7.51
2017-04-21T04:24:48.955Z,7.5
2017-04-21T04:25:14.460Z,7.5
2017-04-21T04:25:39.944Z,7.53
2017-04-21T04:26:05.423Z,7.45
2017-04-21T04:26:30.884Z,7.42
2017-04-21T04:26:56.402Z,7.5
2017-04-21T04:27:21.892Z,7.42
2017-04-21T04:28:25.501Z,7.48
2017-04-21T04:28:50.992Z,7.48
2017-04-21T04:29:16.476Z,7.51
2017-04-21T04:29:41.974Z,7.5
2017-04-21T04:30:07.470Z,7.45
2017-04-21T04:30:33.005Z,7.47
2017-04-21T04:30:58.539Z,7.48
2017-04-21T04:31:24.049Z,7.43
2017-04-21T04:31:49.528Z,7.48
2017-04-21T04:32:15.053Z,7.45
2017-04-21T04:32:40.576Z,7.5
2017-04-21T04:33:06.058Z,7.51
2017-04-21T04:33:31.602Z,7.5
2017-04-21T04:33:57.098Z,7.48
2017-04-21T04:34:22.592Z,7.48
2017-04-21T04:34:48.115Z,7.48
2017-04-21T04:35:13.674Z,7.48
2017-04-21T04:35:39.202Z,7.47
2017-04-21T04:36:04.687Z,7.45
2017-04-21T04:36:30.153Z,7.53
2017-04-21T04:36:55.643Z,7.48
2017-04-21T04:37:21.137Z,7.48
2017-04-21T04:37:46.648Z,7.42
2017-04-21T04:38:12.155Z,7.48
2017-04-21T04:38:37.678Z,7.42
2017-04-21T04:39:03.184Z,7.45
2017-04-21T04:39:28.711Z,7.5
2017-04-21T04:39:54.237Z,7.48
2017-04-21T04:40:19.766Z,7.47
2017-04-21T04:40:45.324Z,7.48
2017-04-21T04:41:10.863Z,7.47
2017-04-21T04:41:36.376Z,7.42
2017-04-21T04:42:01.918Z,7.45
2017-04-21T04:42:27.417Z,7.48
2017-04-21T04:42:53.045Z,7.53
2017-04-21T04:43:18.525Z,7.5
2017-04-21T04:43:44.164Z,7.54
2017-04-21T04:44:09.783Z,7.39
2017-04-21T04:44:35.389Z,7.47
2017-04-21T04:45:00.863Z,7.47
2017-04-21T04:45:26.384Z,7.42
2017-04-21T04:45:51.878Z,7.4
2017-04-21T04:46:17.378Z,7.53
2017-04-21T04:46:42.918Z,7.38
2017-04-21T04:47:08.424Z,7.5
2017-04-21T04:47:33.943Z,7.4
2017-04-21T04:47:59.459Z,7.42
2017-04-21T04:48:24.968Z,7.38
2017-04-21T04:48:50.484Z,7.39
2017-04-21T04:49:16.002Z,7.35
2017-04-21T04:49:41.534Z,7.36
2017-04-21T04:50:07.026Z,7.32
2017-04-21T04:50:32.533Z,7.32
2017-04-21T04:50:58.051Z,7.35
2017-04-21T04:51:23.519Z,7.29
2017-04-21T04:51:49.014Z,7.24
2017-04-21T04:52:14.539Z,7.39
2017-04-21T04:52:40.049Z,7.32
2017-04-21T04:53:05.536Z,7.32
2017-04-21T04:53:31.027Z,7.24
2017-04-21T04:53:56.553Z,7.33
2017-04-21T04:54:22.021Z,7.24
2017-04-21T04:54:47.524Z,7.31
2017-04-21T04:55:13.021Z,7.2
2017-04-21T04:55:38.529Z,7.31
2017-04-21T04:56:04.035Z,7.17
2017-04-21T04:56:29.503Z,7.18
2017-04-21T04:56:55.027Z,7.17
2017-04-21T04:57:20.524Z,7.21
2017-04-21T04:57:46.012Z,7.2
2017-04-21T04:58:11.492Z,7.25
2017-04-21T04:58:37.000Z,7.31
2017-04-21T04:59:02.500Z,7.23
2017-04-21T04:59:28.058Z,7.25
2017-04-21T04:59:53.549Z,7.33
2017-04-21T05:00:19.059Z,7.32
2017-04-21T05:00:44.562Z,7.36
2017-04-21T05:01:10.087Z,7.35
2017-04-21T05:01:35.576Z,7.32
2017-04-21T05:02:01.095Z,7.33
2017-04-21T05:02:26.571Z,7.42
2017-04-21T05:02:52.075Z,7.33
2017-04-21T05:03:17.582Z,7.32
2017-04-21T05:03:43.062Z,7.36
2017-04-21T05:04:08.573Z,7.29
2017-04-21T05:04:34.072Z,7.24
2017-04-21T05:04:59.635Z,7.31
2017-04-21T05:05:25.125Z,7.31
2017-04-21T05:05:50.655Z,7.23
2017-04-21T05:06:16.146Z,7.18
2017-04-21T05:06:41.660Z,7.2
2017-04-21T05:07:07.180Z,7.18
2017-04-21T05:07:32.658Z,7.2
2017-04-21T05:07:58.221Z,7.25
2017-04-21T05:08:23.745Z,7.18
2017-04-21T05:08:49.295Z,7.23
2017-04-21T05:09:14.744Z,7.18
2017-04-21T05:09:40.249Z,7.2
2017-04-21T05:10:05.770Z,7.07
2017-04-21T05:10:31.371Z,7.15
2017-04-21T05:10:56.866Z,7.06
2017-04-21T05:11:22.361Z,7.07
2017-04-21T05:11:47.843Z,7.1
2017-04-21T05:12:13.416Z,7.17
2017-04-21T05:12:39.005Z,7
2017-04-21T05:13:04.494Z,7.17
2017-04-21T05:13:30.020Z,7.05
2017-04-21T05:13:55.550Z,7.03
2017-04-21T05:14:21.045Z,7.06
2017-04-21T05:14:46.545Z,7.15
2017-04-21T05:15:12.030Z,7.06
2017-04-21T05:15:37.710Z,7.15
2017-04-21T05:16:03.220Z,7.11
2017-04-21T05:16:28.714Z,7.18
2017-04-21T05:16:54.220Z,7.17
2017-04-21T05:17:19.736Z,7.15
2017-04-21T05:17:45.242Z,7.2
2017-04-21T05:18:10.726Z,7.14
2017-04-21T05:18:36.257Z,7.18
2017-04-21T05:19:01.794Z,7.2
2017-04-21T05:19:27.312Z,7.2
2017-04-21T05:19:52.869Z,7.13
2017-04-21T05:20:18.397Z,7.17
2017-04-21T05:20:43.946Z,7.17
2017-04-21T05:21:09.424Z,7.23
2017-04-21T05:21:34.927Z,7.17
2017-04-21T05:22:00.450Z,7.2
2017-04-21T05:22:25.966Z,7.14
2017-04-21T05:22:51.425Z,7.17
2017-04-21T05:23:16.913Z,7.17
2017-04-21T05:23:42.422Z,7.06
2017-04-21T05:24:07.948Z,7.18
2017-04-21T05:24:33.457Z,7.14
2017-04-21T05:24:58.952Z,7.15
2017-04-21T05:25:24.468Z,7.23
2017-04-21T05:25:50.005Z,7.17
2017-04-21T05:26:15.614Z,7.18
2017-04-21T05:26:41.120Z,7.23
2017-04-21T05:27:06.649Z,7.2
2017-04-21T05:27:32.139Z,7.24
2017-04-21T05:27:57.661Z,7.15
2017-04-21T05:28:23.145Z,7.2
2017-04-21T05:28:48.663Z,7.25
2017-04-21T05:29:14.163Z,7.2
2017-04-21T05:29:39.672Z,7.18
2017-04-21T05:30:05.160Z,7.2
2017-04-21T05:30:30.674Z,7.2
2017-04-21T05:30:56.202Z,7.23
2017-04-21T05:31:21.734Z,7.23
2017-04-21T05:31:47.273Z,7.2
2017-04-21T05:32:12.752Z,7.23
2017-04-21T05:32:38.278Z,7.2
2017-04-21T05:33:03.826Z,7.25
2017-04-21T05:33:29.328Z,7.24
2017-04-21T05:33:54.825Z,7.32
2017-04-21T05:34:20.330Z,7.28
2017-04-21T05:34:45.832Z,7.35
2017-04-21T05:35:11.360Z,7.38
2017-04-21T05:35:36.830Z,7.35
2017-04-21T05:36:02.323Z,7.31
2017-04-21T05:36:27.817Z,7.33
2017-04-21T05:36:53.349Z,7.31
2017-04-21T05:37:18.821Z,7.35
2017-04-21T05:37:44.344Z,7.42
2017-04-21T05:38:09.844Z,7.36
2017-04-21T05:38:35.367Z,7.47
2017-04-21T05:39:00.834Z,7.38
2017-04-21T05:39:26.370Z,7.48
2017-04-21T05:39:51.871Z,7.51
2017-04-21T05:40:17.379Z,7.51
2017-04-21T05:40:42.850Z,7.47
2017-04-21T05:41:08.360Z,7.51
2017-04-21T05:41:33.881Z,7.51
2017-04-21T05:41:59.350Z,7.47
2017-04-21T05:42:24.879Z,7.48
2017-04-21T05:42:50.389Z,7.43
2017-04-21T05:43:15.876Z,7.6
2017-04-21T05:43:41.377Z,7.54
2017-04-21T05:44:06.882Z,7.57
2017-04-21T05:44:32.380Z,7.57
2017-04-21T05:44:57.877Z,7.47
2017-04-21T05:45:23.385Z,7.48
2017-04-21T05:45:49.804Z,7.57
2017-04-21T05:46:15.313Z,7.48
2017-04-21T05:46:40.788Z,7.51
2017-04-21T05:47:06.282Z,7.54
2017-04-21T05:47:31.770Z,7.56
2017-04-21T05:47:57.280Z,7.53
2017-04-21T05:48:22.777Z,7.58
2017-04-21T05:48:48.274Z,7.56
2017-04-21T05:49:13.773Z,7.56
2017-04-21T05:49:39.301Z,7.61
2017-04-21T05:50:04.834Z,7.54
2017-04-21T05:50:30.379Z,7.61
2017-04-21T05:50:55.914Z,7.54
2017-04-21T05:51:21.366Z,7.6
2017-04-21T05:51:46.881Z,7.6
2017-04-21T05:52:12.372Z,7.57
2017-04-21T05:52:37.876Z,7.54
2017-04-21T05:53:03.353Z,7.56
2017-04-21T05:53:28.857Z,7.67
2017-04-21T05:53:54.361Z,7.61
2017-04-21T05:54:19.881Z,7.7
2017-04-21T05:54:45.400Z,7.7
2017-04-21T05:55:10.887Z,7.67
2017-04-21T05:55:36.430Z,7.66
2017-04-21T05:56:01.932Z,7.61
2017-04-21T05:56:27.437Z,7.72
2017-04-21T05:56:52.918Z,7.66
2017-04-21T05:57:18.482Z,7.63
2017-04-21T05:57:43.957Z,7.79
2017-04-21T05:58:09.461Z,7.67
2017-04-21T05:58:34.979Z,7.73
2017-04-21T05:59:00.484Z,7.72
2017-04-21T05:59:25.978Z,7.72
2017-04-21T05:59:51.457Z,7.75
2017-04-21T06:00:16.973Z,7.75
2017-04-21T06:00:42.466Z,7.8
2017-04-21T06:01:08.011Z,7.72
2017-04-21T06:01:33.586Z,7.7
2017-04-21T06:01:59.062Z,7.79
2017-04-21T06:02:24.554Z,7.76
2017-04-21T06:02:50.072Z,7.73
2017-04-21T06:03:15.565Z,7.85
2017-04-21T06:03:41.093Z,7.8
2017-04-21T06:04:06.610Z,7.83
2017-04-21T06:04:32.098Z,7.79
2017-04-21T06:04:57.584Z,7.88
2017-04-21T06:05:23.087Z,7.91
2017-04-21T06:05:48.580Z,7.93
2017-04-21T06:06:14.125Z,7.98
2017-04-21T06:06:39.609Z,7.91
2017-04-21T06:07:05.104Z,7.88
2017-04-21T06:07:30.615Z,7.91
2017-04-21T06:07:56.142Z,7.93
2017-04-21T06:08:21.702Z,7.93
2017-04-21T06:08:47.227Z,8.03
2017-04-21T06:09:12.766Z,8.03
2017-04-21T06:09:38.287Z,8.05
2017-04-21T06:10:03.798Z,8.09
2017-04-21T06:10:29.310Z,8.09
2017-04-21T06:10:54.831Z,8.08
2017-04-21T06:11:20.349Z,8
2017-04-21T06:11:45.839Z,8.13
2017-04-21T06:12:11.359Z,8.16
2017-04-21T06:12:36.885Z,8.09
2017-04-21T06:13:02.406Z,8.13
2017-04-21T06:13:27.913Z,8.1
2017-04-21T06:13:53.411Z,8.1
2017-04-21T06:14:18.904Z,8.18
2017-04-21T06:14:44.395Z,8.18
2017-04-21T06:15:09.909Z,8.23
2017-04-21T06:15:35.399Z,8.19
2017-04-21T06:16:00.886Z,8.18
2017-04-21T06:16:26.395Z,8.27
2017-04-21T06:16:51.870Z,8.19
2017-04-21T06:17:17.402Z,8.27
2017-04-21T06:17:42.893Z,8.23
2017-04-21T06:18:08.389Z,8.26
2017-04-21T06:18:33.846Z,8.24
2017-04-21T06:18:59.336Z,8.34
2017-04-21T06:19:24.826Z,8.37
2017-04-21T06:19:50.336Z,8.33
2017-04-21T06:20:15.842Z,8.36
2017-04-21T06:20:41.351Z,8.45
2017-04-21T06:21:06.860Z,8.34
2017-04-21T06:21:32.333Z,8.28
2017-04-21T06:21:57.878Z,8.42
2017-04-21T06:22:23.344Z,8.38
2017-04-21T06:22:48.860Z,8.45
2017-04-21T06:23:14.364Z,8.37
2017-04-21T06:23:39.855Z,8.45
2017-04-21T06:24:05.337Z,8.37
2017-04-21T06:24:30.838Z,8.46
2017-04-21T06:24:56.340Z,8.46
2017-04-21T06:25:21.869Z,8.44
2017-04-21T06:25:47.338Z,8.49
2017-04-21T06:26:12.859Z,8.51
2017-04-21T06:26:38.373Z,8.52
2017-04-21T06:27:03.864Z,8.55
2017-04-21T06:27:29.358Z,8.49
2017-04-21T06:27:54.879Z,8.55
2017-04-21T06:28:20.368Z,8.51
2017-04-21T06:28:45.940Z,8.55
2017-04-21T06:29:11.419Z,8.52
2017-04-21T06:29:36.934Z,8.6
2017-04-21T06:30:02.469Z,8.61
2017-04-21T06:30:27.953Z,8.64
2017-04-21T06:30:53.476Z,8.67
2017-04-21T06:31:18.977Z,8.7
2017-04-21T06:31:44.480Z,8.73
2017-04-21T06:32:10.007Z,8.69
2017-04-21T06:32:35.519Z,8.67
2017-04-21T06:33:01.047Z,8.73
2017-04-21T06:33:26.527Z,8.74
2017-04-21T06:33:52.022Z,8.7
2017-04-21T06:34:17.519Z,8.76
2017-04-21T06:34:43.057Z,8.71
2017-04-21T06:35:08.593Z,8.73
2017-04-21T06:35:34.091Z,8.71
2017-04-21T06:35:59.613Z,8.67
2017-04-21T06:36:25.110Z,8.71
2017-04-21T06:36:50.636Z,8.69
2017-04-21T06:37:16.126Z,8.79
2017-04-21T06:37:41.667Z,8.87
2017-04-21T06:38:07.173Z,8.78
2017-04-21T06:38:32.684Z,8.78
2017-04-21T06:38:58.157Z,8.76
2017-04-21T06:39:23.684Z,8.85
2017-04-21T06:39:49.184Z,8.82
2017-04-21T06:40:14.686Z,8.76
2017-04-21T06:40:40.182Z,8.85
2017-04-21T06:41:05.682Z,8.87
2017-04-21T06:41:31.204Z,8.84
2017-04-21T06:41:56.692Z,8.85
2017-04-21T06:42:22.207Z,8.94
2017-04-21T06:42:47.718Z,8.94
2017-04-21T06:43:13.203Z,9.02
2017-04-21T06:43:38.694Z,9.02
2017-04-21T06:44:04.239Z,9.02
2017-04-21T06:44:29.755Z,9.04
2017-04-21T06:44:55.265Z,9.02
2017-04-21T06:45:20.776Z,9
2017-04-21T06:45:46.274Z,9.13
2017-04-21T06:46:11.793Z,9.1
2017-04-21T06:46:37.311Z,9.16
2017-04-21T06:47:02.798Z,9.18
2017-04-21T06:47:28.316Z,9.14
2017-04-21T06:47:53.847Z,9.14
2017-04-21T06:48:19.379Z,9.19
2017-04-21T06:48:44.922Z,9.22
2017-04-21T06:49:10.438Z,9.18
2017-04-21T06:49:35.938Z,9.23
2017-04-21T06:50:01.471Z,9.21
2017-04-21T06:50:26.940Z,9.19
2017-04-21T06:50:52.449Z,9.28
2017-04-21T06:51:17.943Z,9.34
2017-04-21T06:51:43.427Z,9.31
2017-04-21T06:52:09.025Z,9.31
2017-04-21T06:52:34.519Z,9.31
2017-04-21T06:53:00.012Z,9.43
2017-04-21T06:53:25.533Z,9.44
2017-04-21T06:53:51.058Z,9.39
2017-04-21T06:54:16.601Z,9.39
2017-04-21T06:54:42.134Z,9.41
2017-04-21T06:55:07.708Z,9.48
2017-04-21T06:55:33.248Z,9.4
2017-04-21T06:55:58.743Z,9.41
2017-04-21T06:56:24.294Z,9.41
2017-04-21T06:56:49.799Z,9.48
2017-04-21T06:57:15.309Z,9.39
2017-04-21T06:57:40.808Z,9.44
2017-04-21T06:58:06.311Z,9.41
2017-04-21T06:58:31.868Z,9.43
2017-04-21T06:58:57.382Z,9.39
2017-04-21T06:59:22.901Z,9.43
2017-04-21T06:59:48.402Z,9.44
2017-04-21T07:00:13.882Z,9.37
2017-04-21T07:00:39.384Z,9.36
2017-04-21T07:01:04.901Z,9.41
2017-04-21T07:01:30.408Z,9.25
2017-04-21T07:01:55.896Z,9.25
2017-04-21T07:02:21.418Z,9.26
2017-04-21T07:02:46.924Z,9.31
2017-04-21T07:03:12.412Z,9.28
2017-04-21T07:03:37.910Z,9.32
2017-04-21T07:04:03.432Z,9.26
2017-04-21T07:04:28.945Z,9.31
2017-04-21T07:04:54.444Z,9.26
2017-04-21T07:05:19.955Z,9.25
2017-04-21T07:05:45.427Z,9.23
2017-04-21T07:06:10.957Z,9.26
2017-04-21T07:06:36.479Z,9.26
2017-04-21T07:07:01.977Z,9.37
2017-04-21T07:07:27.501Z,9.44
2017-04-21T07:07:53.028Z,9.44
2017-04-21T07:08:18.531Z,9.4
2017-04-21T07:08:44.021Z,9.47
2017-04-21T07:09:09.518Z,9.43
2017-04-21T07:09:35.024Z,9.51
2017-04-21T07:10:00.561Z,9.41
2017-04-21T07:10:26.052Z,9.51
2017-04-21T07:10:51.552Z,9.59
2017-04-21T07:11:17.093Z,9.5
2017-04-21T07:11:42.656Z,9.55
2017-04-21T07:12:08.185Z,9.55
2017-04-21T07:12:33.729Z,9.56
2017-04-21T07:12:59.217Z,9.47
2017-04-21T07:13:24.715Z,9.55
2017-04-21T07:13:50.222Z,9.5
2017-04-21T07:14:15.720Z,9.47
2017-04-21T07:14:41.209Z,9.56
2017-04-21T07:15:06.705Z,9.51
2017-04-21T07:15:32.221Z,9.58
2017-04-21T07:15:57.739Z,9.54
2017-04-21T07:16:23.252Z,9.64
2017-04-21T07:16:48.820Z,9.55
2017-04-21T07:17:14.333Z,9.58
2017-04-21T07:17:39.817Z,9.72
2017-04-21T07:18:05.337Z,9.58
2017-04-21T07:18:30.839Z,9.65
2017-04-21T07:18:56.374Z,9.66
2017-04-21T07:19:21.879Z,9.68
2017-04-21T07:19:47.420Z,9.76
2017-04-21T07:20:12.906Z,9.64
2017-04-21T07:20:38.409Z,9.61
2017-04-21T07:21:03.919Z,9.66
2017-04-21T07:21:29.433Z,9.68
2017-04-21T07:21:54.922Z,9.76
2017-04-21T07:22:20.457Z,9.66
2017-04-21T07:22:45.954Z,9.66
2017-04-21T07:23:11.453Z,9.66
2017-04-21T07:23:36.996Z,9.64
2017-04-21T07:24:02.492Z,9.73
2017-04-21T07:24:27.982Z,9.66
2017-04-21T07:24:53.488Z,9.64
2017-04-21T07:25:19.004Z,9.8
2017-04-21T07:25:44.502Z,9.73
2017-04-21T07:26:09.997Z,9.73
2017-04-21T07:26:35.506Z,9.76
2017-04-21T07:27:01.031Z,9.76
2017-04-21T07:27:26.543Z,9.84
2017-04-21T07:27:52.047Z,9.82
2017-04-21T07:28:17.530Z,9.84
2017-04-21T07:28:43.031Z,9.83
2017-04-21T07:29:08.540Z,9.86
2017-04-21T07:29:34.068Z,9.86
2017-04-21T07:29:59.562Z,9.83
2017-04-21T07:30:25.060Z,9.82
2017-04-21T07:30:50.551Z,9.94
2017-04-21T07:31:16.027Z,9.84
2017-04-21T07:31:41.535Z,9.94
2017-04-21T07:32:07.068Z,9.94
2017-04-21T07:32:32.539Z,10.01
2017-04-21T07:32:58.058Z,10.07
2017-04-21T07:33:23.547Z,10.1
2017-04-21T07:33:49.032Z,10.01
2017-04-21T07:34:14.541Z,9.99
2017-04-21T07:34:40.026Z,10.09
2017-04-21T07:35:05.537Z,10.02
2017-04-21T07:36:21.972Z,10.2
2017-04-21T07:36:47.500Z,10.19
2017-04-21T07:37:13.009Z,10.22
2017-04-21T07:37:38.523Z,10.13
2017-04-21T07:38:03.975Z,10.22
2017-04-21T07:38:29.475Z,10.19
2017-04-21T07:39:20.475Z,10.22
2017-04-21T07:40:11.486Z,10.15
2017-04-21T07:40:36.991Z,10.23
2017-04-21T07:41:02.502Z,10.26
2017-04-21T07:41:28.025Z,10.25
2017-04-21T07:41:53.496Z,10.33
2017-04-21T07:42:44.477Z,10.28
2017-04-21T07:43:09.957Z,10.31
2017-04-21T07:43:35.458Z,10.34
2017-04-21T07:44:00.942Z,10.35
2017-04-21T07:44:26.437Z,10.35
2017-04-21T07:44:51.934Z,10.28
2017-04-21T07:45:17.424Z,10.35
2017-04-21T07:45:42.933Z,10.33
2017-04-21T07:46:08.417Z,10.34
2017-04-21T07:46:33.915Z,10.3
2017-04-21T07:46:59.429Z,10.34
2017-04-21T07:47:24.922Z,10.41
2017-04-21T07:47:50.409Z,10.4
2017-04-21T07:48:15.945Z,10.38
2017-04-21T07:48:41.445Z,10.37
2017-04-21T07:49:06.960Z,10.38
2017-04-21T07:49:32.457Z,10.38
2017-04-21T07:49:57.971Z,10.38
2017-04-21T07:50:23.467Z,10.4
2017-04-21T07:50:48.944Z,10.38
2017-04-21T07:51:14.489Z,10.41
2017-04-21T07:51:39.987Z,10.4
2017-04-21T07:52:05.490Z,10.4
2017-04-21T07:52:31.000Z,10.4
2017-04-21T07:52:56.545Z,10.42
2017-04-21T07:53:22.033Z,10.35
2017-04-21T07:53:47.520Z,10.44
2017-04-21T07:54:13.007Z,10.4
2017-04-21T07:54:38.516Z,10.41
2017-04-21T07:55:04.008Z,10.38
2017-04-21T07:55:29.485Z,10.33
2017-04-21T07:55:54.987Z,10.35
2017-04-21T08:01:22.661Z,10.4
2017-04-21T08:01:48.151Z,10.4
2017-04-21T08:02:13.626Z,10.4
2017-04-21T08:02:39.117Z,10.4
2017-04-21T08:03:04.613Z,10.34
2017-04-21T08:03:30.087Z,10.38
2017-04-21T08:03:55.554Z,10.38
2017-04-21T08:04:21.031Z,10.53
2017-04-21T08:04:46.531Z,10.57
2017-04-21T08:05:12.034Z,10.51
2017-04-21T08:05:37.514Z,10.51
2017-04-21T08:06:02.986Z,10.54
2017-04-21T08:06:28.462Z,10.56
2017-04-21T08:06:53.927Z,10.61
2017-04-21T08:07:19.427Z,10.61
2017-04-21T08:07:44.913Z,10.64
2017-04-21T08:08:10.409Z,10.61
2017-04-21T08:08:35.901Z,10.63
2017-04-21T08:09:26.950Z,10.69
2017-04-21T08:09:52.416Z,10.64
2017-04-21T08:10:17.884Z,10.64
2017-04-21T08:10:43.367Z,10.75
2017-04-21T08:11:08.851Z,10.78
2017-04-21T08:11:34.336Z,10.76
2017-04-21T08:11:59.852Z,10.92
2017-04-21T08:12:25.341Z,10.89
2017-04-21T08:12:50.830Z,10.93
2017-04-21T08:13:16.349Z,11.02
2017-04-21T08:13:41.829Z,10.96
2017-04-21T08:14:07.295Z,11.04
2017-04-21T08:14:32.743Z,11.05
2017-04-21T08:14:58.227Z,11.1
2017-04-21T08:15:23.703Z,11.1
2017-04-21T08:15:49.188Z,11.14
2017-04-21T08:16:14.666Z,11.22
2017-04-21T08:16:40.135Z,11.25
2017-04-21T08:17:05.621Z,11.26
2017-04-21T08:17:31.099Z,11.26
2017-04-21T08:17:56.585Z,11.18
2017-04-21T08:18:22.058Z,11.14
2017-04-21T08:18:47.542Z,11.1
2017-04-21T08:19:13.000Z,11.07
2017-04-21T08:19:38.483Z,11.11
2017-04-21T08:20:03.938Z,10.99
2017-04-21T08:20:29.430Z,10.94
2017-04-21T08:20:54.911Z,10.92
2017-04-21T08:21:20.389Z,10.81
2017-04-21T08:21:45.855Z,10.79
2017-04-21T08:22:11.351Z,10.75
2017-04-21T08:22:36.838Z,10.76
2017-04-21T08:23:02.343Z,10.75
2017-04-21T08:23:27.808Z,10.78
2017-04-21T08:23:53.296Z,10.84
2017-04-21T08:24:18.761Z,10.76
2017-04-21T08:24:44.213Z,10.81
2017-04-21T08:25:09.707Z,10.87
2017-04-21T08:25:35.201Z,10.82
2017-04-21T08:26:00.701Z,10.94
2017-04-21T08:26:26.169Z,10.92
2017-04-21T08:26:51.637Z,11
2017-04-21T08:27:17.118Z,10.97
2017-04-21T08:27:42.584Z,10.93
2017-04-21T08:28:08.078Z,11.1
2017-04-21T08:28:33.574Z,11.07
2017-04-21T08:28:59.082Z,11.07
2017-04-21T08:29:24.571Z,11.19
2017-04-21T08:29:50.047Z,11.15
2017-04-21T08:30:15.520Z,11.15
2017-04-21T08:30:40.981Z,11.17
2017-04-21T08:31:06.463Z,11.11
2017-04-21T08:31:31.972Z,11.05
2017-04-21T08:31:57.439Z,11.04
2017-04-21T08:32:22.956Z,10.94
2017-04-21T08:32:48.401Z,11
2017-04-21T08:33:13.855Z,10.89
2017-04-21T08:33:39.322Z,10.87
2017-04-21T08:34:04.818Z,10.76
2017-04-21T08:34:30.286Z,10.71
2017-04-21T08:34:55.739Z,10.67
2017-04-21T08:35:21.233Z,10.67
2017-04-21T08:35:46.709Z,10.57
2017-04-21T08:36:12.191Z,10.57
2017-04-21T08:36:37.646Z,10.59
2017-04-21T08:37:03.132Z,10.48
2017-04-21T08:37:28.625Z,10.54
2017-04-21T08:37:54.074Z,10.48
2017-04-21T08:38:19.552Z,10.42
2017-04-21T08:38:45.044Z,10.42
2017-04-21T08:39:10.507Z,10.37
2017-04-21T08:39:35.954Z,10.4
2017-04-21T08:40:01.439Z,10.38
2017-04-21T08:40:26.902Z,10.4
2017-04-21T08:40:52.348Z,10.28
2017-04-21T08:41:17.845Z,10.37
2017-04-21T08:41:43.337Z,10.38
2017-04-21T08:42:08.813Z,10.38
2017-04-21T08:42:34.290Z,10.4
2017-04-21T08:42:59.795Z,10.35
2017-04-21T08:43:25.283Z,10.37
2017-04-21T08:43:50.735Z,10.42
2017-04-21T08:44:16.223Z,10.51
2017-04-21T08:44:41.692Z,10.54
2017-04-21T08:45:07.154Z,10.61
2017-04-21T08:45:32.652Z,10.64
2017-04-21T08:45:58.129Z,10.78
2017-04-21T08:46:23.627Z,10.87
2017-04-21T08:46:49.102Z,10.97
2017-04-21T08:47:14.557Z,11.05
2017-04-21T08:47:40.030Z,11.08
2017-04-21T08:48:05.591Z,11.19
2017-04-21T08:48:31.032Z,11.3
2017-04-21T08:48:56.489Z,11.33
2017-04-21T08:49:21.972Z,11.35
2017-04-21T08:49:47.474Z,11.48
2017-04-21T08:50:12.954Z,11.54
2017-04-21T08:50:38.514Z,11.48
2017-04-21T08:51:03.908Z,11.54
2017-04-21T08:51:29.409Z,11.5
2017-04-21T08:51:54.904Z,11.48
2017-04-21T08:52:20.394Z,11.5
2017-04-21T08:52:45.843Z,11.51
2017-04-21T08:53:11.328Z,11.48
2017-04-21T08:53:36.794Z,11.5
2017-04-21T08:54:02.271Z,11.32
2017-04-21T08:54:27.753Z,11.27
2017-04-21T08:54:53.252Z,11.22
2017-04-21T08:55:18.736Z,11.12
2017-04-21T08:55:44.214Z,11.15
2017-04-21T08:56:09.674Z,11.08
2017-04-21T08:56:35.133Z,11.08
2017-04-21T08:57:00.637Z,11.11
2017-04-21T08:57:26.135Z,11.04
2017-04-21T08:57:51.576Z,11.02
2017-04-21T08:58:17.110Z,11
2017-04-21T08:58:42.579Z,11.04
2017-04-21T08:59:08.049Z,11.07
2017-04-21T08:59:33.551Z,11.15
2017-04-21T08:59:59.004Z,11.22
2017-04-21T09:00:24.521Z,11.23
2017-04-21T09:00:50.010Z,11.23
2017-04-21T09:01:15.511Z,11.26
2017-04-21T09:01:41.001Z,11.32
2017-04-21T09:02:06.491Z,11.3
2017-04-21T09:02:31.963Z,11.36
2017-04-21T09:02:57.454Z,11.36
2017-04-21T09:03:22.913Z,11.41
2017-04-21T09:03:48.418Z,11.41
2017-04-21T09:04:13.908Z,11.4
2017-04-21T09:04:39.381Z,11.48
2017-04-21T09:05:04.872Z,11.54
2017-04-21T09:05:30.343Z,11.51
2017-04-21T09:05:55.880Z,11.54
2017-04-21T09:06:21.362Z,11.5
2017-04-21T09:06:46.863Z,11.41
2017-04-21T09:07:12.342Z,11.45
2017-04-21T09:07:37.783Z,11.44
2017-04-21T09:08:03.274Z,11.36
2017-04-21T09:08:28.783Z,11.33
2017-04-21T09:08:54.239Z,11.3
2017-04-21T09:09:19.760Z,11.29
2017-04-21T09:09:45.236Z,11.19
2017-04-21T09:10:10.675Z,11.26
2017-04-21T09:10:36.116Z,11.23
2017-04-21T09:11:01.609Z,11.22
2017-04-21T09:11:55.017Z,11.19
2017-04-21T09:12:20.494Z,11.25
2017-04-21T09:12:45.969Z,11.3
2017-04-21T09:13:11.468Z,11.33
2017-04-21T09:13:36.952Z,11.3
2017-04-21T09:14:02.403Z,11.35
2017-04-21T09:14:27.884Z,11.35
2017-04-21T09:14:53.378Z,11.44
2017-04-21T09:15:18.869Z,11.43
2017-04-21T09:15:44.339Z,11.48
2017-04-21T09:16:09.793Z,11.45
2017-04-21T09:16:35.256Z,11.36
2017-04-21T09:17:00.720Z,11.48
2017-04-21T09:17:26.190Z,11.55
2017-04-21T09:17:51.658Z,11.5
2017-04-21T09:18:17.136Z,11.62
2017-04-21T09:18:42.626Z,11.63
2017-04-21T09:19:08.108Z,11.6
2017-04-21T09:19:33.602Z,11.65
2017-04-21T09:19:59.100Z,11.63
2017-04-21T09:20:24.573Z,11.69
2017-04-21T09:20:50.079Z,11.63
2017-04-21T09:21:15.593Z,11.63
2017-04-21T09:21:41.056Z,11.65
2017-04-21T09:22:06.529Z,11.68
2017-04-21T09:22:32.021Z,11.7
2017-04-21T09:22:57.495Z,11.72
2017-04-21T09:23:22.994Z,11.7
2017-04-21T09:23:48.441Z,11.66
2017-04-21T09:24:13.915Z,11.7
2017-04-21T09:24:39.412Z,11.77
2017-04-21T09:25:04.870Z,11.73
2017-04-21T09:25:30.340Z,11.75
2017-04-21T09:25:55.786Z,11.69
2017-04-21T09:26:21.302Z,11.81
2017-04-21T09:26:46.798Z,11.81
2017-04-21T09:27:12.321Z,11.83
2017-04-21T09:27:37.794Z,11.88
2017-04-21T09:28:03.276Z,11.95
2017-04-21T09:28:28.751Z,11.91
2017-04-21T09:28:54.249Z,11.9
2017-04-21T09:29:19.756Z,11.84
2017-04-21T09:29:45.203Z,11.8
2017-04-21T09:30:10.730Z,11.9
2017-04-21T09:30:36.189Z,11.95
2017-04-21T09:31:01.696Z,11.94
2017-04-21T09:31:27.180Z,11.9
2017-04-21T09:31:52.636Z,11.9
2017-04-21T09:32:18.123Z,11.9
2017-04-21T09:32:43.656Z,11.87
2017-04-21T09:33:09.109Z,12.02
2017-04-21T09:33:34.572Z,11.94
2017-04-21T09:34:00.044Z,11.88
2017-04-21T09:34:25.497Z,12.02
2017-04-21T09:34:50.983Z,12.12
2017-04-21T09:35:16.468Z,12.13
2017-04-21T09:35:41.993Z,12.15
2017-04-21T09:36:07.500Z,12.27
2017-04-21T09:36:32.969Z,12.35
2017-04-21T09:36:58.417Z,12.36
2017-04-21T09:37:23.892Z,12.5
2017-04-21T09:37:49.382Z,12.55
2017-04-21T09:38:14.917Z,12.61
2017-04-21T09:38:40.386Z,12.72
2017-04-21T09:39:05.862Z,12.83
2017-04-21T09:39:31.325Z,12.73
2017-04-21T09:39:56.807Z,12.75
2017-04-21T09:40:22.265Z,12.87
2017-04-21T09:40:47.768Z,12.91
2017-04-21T09:41:13.240Z,12.97
2017-04-21T09:41:38.765Z,12.98
2017-04-21T09:42:04.263Z,12.97
2017-04-21T09:42:29.760Z,12.95
2017-04-21T09:42:55.259Z,13.03
2017-04-21T09:43:20.740Z,13.09
2017-04-21T09:43:46.213Z,13.08
2017-04-21T09:44:11.685Z,12.95
2017-04-21T09:44:37.184Z,12.97
2017-04-21T09:45:02.644Z,13.04
2017-04-21T09:45:28.146Z,13
2017-04-21T09:45:53.634Z,12.97